Time;durP1;ratioP1;P1;durP2;ratioP2;P2;SDS_P1;SDS_P2;PMS_P1;PMS_P2;Temp;Humidity;BMP_temperature;BMP_pressure;BME280_temperature;BME280_humidity;BME280_pressure;Samples;Min_cycle;Max_cycle;Signal;HPM_P1;HPM_P2
2022/01/24 00:02:25;;;;;;;6.10;5.50;;;5.60;99.90;;;;;;5008491;28;20525;-66
2022/01/24 00:04:51;;;;;;;6.00;5.35;;;5.60;99.90;;;;;;5020521;28;20033;-66
2022/01/24 00:07:20;;;;;;;6.00;5.47;;;5.60;99.90;;;;;;5029351;28;20036;-66
2022/01/24 00:09:46;;;;;;;5.70;5.18;;;5.60;99.90;;;;;;5012456;28;20406;-66
2022/01/24 00:12:19;;;;;;;5.78;5.15;;;5.60;99.90;;;;;;5011614;28;20501;-66
2022/01/24 00:17:32;;;;;;;6.30;5.70;;;5.60;99.90;;;;;;5022395;28;20077;-66
2022/01/24 00:28:11;;;;;;;7.50;5.93;;;5.60;99.90;;;;;;5005462;28;20061;-66
2022/01/24 00:30:38;;;;;;;6.78;6.13;;;5.60;99.90;;;;;;5017138;28;20057;-66
2022/01/24 00:33:03;;;;;;;7.95;6.43;;;5.60;99.90;;;;;;5017940;28;20049;-66
2022/01/24 00:35:29;;;;;;;6.88;6.18;;;5.60;99.90;;;;;;5012969;28;20049;-66
2022/01/24 00:38:01;;;;;;;6.78;6.18;;;5.60;99.90;;;;;;5012937;28;20061;-66
2022/01/24 00:40:28;;;;;;;7.47;6.78;;;5.60;99.90;;;;;;5008466;28;20060;-66
2022/01/24 00:42:58;;;;;;;8.50;6.95;;;5.60;99.90;;;;;;5026963;28;20037;-66
2022/01/24 00:55:38;;;;;;;9.20;7.65;;;5.50;99.90;;;;;;5034490;28;20041;-66
2022/01/24 00:58:04;;;;;;;7.78;7.07;;;5.50;99.90;;;;;;5003290;28;20044;-66
2022/01/24 01:00:29;;;;;;;8.45;7.63;;;5.50;99.90;;;;;;5043644;28;20063;-66
2022/01/24 01:02:55;;;;;;;8.32;6.55;;;5.50;99.90;;;;;;5019720;28;20072;-66
2022/01/24 01:18:44;;;;;;;7.25;6.55;;;5.50;99.90;;;;;;5073493;28;20599;-71
2022/01/24 01:21:11;;;;;;;7.55;6.70;;;5.50;99.90;;;;;;5066585;28;20120;-71
2022/01/24 01:23:41;;;;;;;9.88;6.70;;;5.50;99.90;;;;;;5043793;28;20056;-71
2022/01/24 01:26:16;;;;;;;7.70;6.57;;;5.50;99.90;;;;;;5039992;28;20040;-71
2022/01/24 01:28:44;;;;;;;6.90;6.18;;;5.40;99.90;;;;;;5037332;28;20037;-71
2022/01/24 01:31:19;;;;;;;7.32;6.63;;;5.50;99.90;;;;;;5051319;28;20055;-71
2022/01/24 01:34:17;;;;;;;8.45;6.63;;;5.50;99.90;;;;;;5047959;28;20062;-71
2022/01/24 01:37:07;;;;;;;7.10;6.40;;;5.50;99.90;;;;;;5050657;28;20056;-71
2022/01/24 01:55:39;;;;;;;7.63;6.68;;;5.50;99.90;;;;;;5038704;28;20135;-71
2022/01/24 01:58:06;;;;;;;8.15;6.28;;;5.40;99.90;;;;;;5054261;28;20127;-71
2022/01/24 02:00:33;;;;;;;7.88;7.10;;;5.40;99.90;;;;;;5070953;28;20044;-71
2022/01/24 02:02:59;;;;;;;7.78;6.97;;;5.40;99.90;;;;;;5047064;28;20482;-71
2022/01/24 02:05:24;;;;;;;7.95;6.65;;;5.40;99.90;;;;;;5053585;28;20051;-71
2022/01/24 02:07:51;;;;;;;8.52;7.63;;;5.40;99.90;;;;;;5031569;28;20095;-71
2022/01/24 02:10:19;;;;;;;9.07;7.25;;;5.40;99.90;;;;;;5034915;28;20659;-71
2022/01/24 02:12:46;;;;;;;8.95;7.47;;;5.40;99.90;;;;;;5034781;28;20359;-71
2022/01/24 02:15:19;;;;;;;8.80;7.55;;;5.40;99.90;;;;;;5050605;28;20059;-71
2022/01/24 02:21:08;;;;;;;8.35;7.45;;;5.40;99.90;;;;;;5043267;28;20128;-72
2022/01/24 02:23:31;;;;;;;8.75;7.28;;;5.30;99.90;;;;;;5029366;28;20041;-71
2022/01/24 02:25:46;;;;;;;8.82;7.93;;;5.30;99.90;;;;;;5052422;28;20063;-71
2022/01/24 02:28:15;;;;;;;9.35;7.90;;;5.30;99.90;;;;;;5037977;28;20608;-71
2022/01/24 02:31:23;;;;;;;11.30;8.48;;;5.30;99.90;;;;;;5052607;28;20057;-71
2022/01/24 02:33:45;;;;;;;10.63;8.50;;;5.30;99.90;;;;;;5046931;28;20055;-71
2022/01/24 02:36:11;;;;;;;9.05;7.78;;;5.30;99.90;;;;;;5038666;28;20126;-71
2022/01/24 02:49:26;;;;;;;9.93;8.90;;;5.30;99.90;;;;;;5046004;28;20505;-71
2022/01/24 02:52:00;;;;;;;9.82;8.82;;;5.30;99.90;;;;;;5042957;28;20382;-71
2022/01/24 02:54:32;;;;;;;10.90;9.68;;;5.30;99.90;;;;;;5047689;28;20080;-71
2022/01/24 02:56:58;;;;;;;10.30;9.07;;;5.30;99.90;;;;;;5046299;28;20050;-71
2022/01/24 02:59:24;;;;;;;12.45;9.68;;;5.30;99.90;;;;;;5039231;28;20045;-71
2022/01/24 03:01:49;;;;;;;11.40;9.68;;;5.30;99.90;;;;;;5040606;28;20160;-71
2022/01/24 03:04:15;;;;;;;9.77;8.77;;;5.30;99.90;;;;;;5047088;28;20083;-71
2022/01/24 03:06:41;;;;;;;10.13;9.02;;;5.30;99.90;;;;;;5034771;28;20045;-71
2022/01/24 03:09:08;;;;;;;10.43;9.32;;;5.30;99.90;;;;;;5065915;28;20052;-71
2022/01/24 03:14:20;;;;;;;10.02;9.02;;;5.30;99.90;;;;;;5035040;28;20036;-72
2022/01/24 03:16:47;;;;;;;11.80;9.55;;;5.30;99.90;;;;;;5058057;28;20532;-71
2022/01/24 03:19:13;;;;;;;13.65;10.55;;;5.30;99.90;;;;;;5033383;28;20128;-71
2022/01/24 03:21:38;;;;;;;13.60;10.35;;;5.30;99.90;;;;;;5022209;28;20059;-72
2022/01/24 03:24:04;;;;;;;12.52;10.43;;;5.30;99.90;;;;;;5045019;28;20451;-71
2022/01/24 03:26:30;;;;;;;13.05;10.23;;;5.30;99.90;;;;;;5048036;28;20040;-71
2022/01/24 03:28:55;;;;;;;12.38;10.25;;;5.30;99.90;;;;;;5042965;28;20064;-71
2022/01/24 03:31:21;;;;;;;12.65;11.05;;;5.30;99.90;;;;;;5052751;28;20044;-71
2022/01/24 03:33:46;;;;;;;12.93;10.98;;;5.20;99.90;;;;;;5041829;28;20044;-71
2022/01/24 03:36:12;;;;;;;14.43;10.77;;;5.30;99.90;;;;;;5048222;28;20040;-71
2022/01/24 03:38:38;;;;;;;12.48;10.40;;;5.30;99.90;;;;;;5040880;28;20119;-71
2022/01/24 03:41:04;;;;;;;14.05;11.80;;;5.30;99.90;;;;;;5040133;28;20131;-71
2022/01/24 03:43:30;;;;;;;14.73;11.40;;;5.30;99.90;;;;;;5041216;28;20486;-71
2022/01/24 03:46:47;;;;;;;15.32;11.88;;;5.30;99.90;;;;;;5052526;28;20067;-71
2022/01/24 03:48:48;;;;;;;14.93;11.63;;;5.20;99.90;;;;;;5042876;28;20060;-71
2022/01/24 03:51:14;;;;;;;15.13;11.35;;;5.20;99.90;;;;;;5044182;28;20132;-71
2022/01/24 03:53:42;;;;;;;15.32;12.82;;;5.20;99.90;;;;;;5040720;28;20032;-71
2022/01/24 03:56:08;;;;;;;16.15;12.35;;;5.20;99.90;;;;;;5024223;28;20048;-72
2022/01/24 03:58:34;;;;;;;14.75;12.15;;;5.20;99.90;;;;;;5037818;28;20041;-71
2022/01/24 04:01:00;;;;;;;15.23;12.45;;;5.20;99.90;;;;;;5039398;28;20087;-71
2022/01/24 04:03:26;;;;;;;16.05;13.07;;;5.20;99.90;;;;;;5051822;28;20033;-71
2022/01/24 04:05:52;;;;;;;14.88;11.75;;;5.30;99.90;;;;;;5037507;28;20490;-71
2022/01/24 04:08:18;;;;;;;14.85;12.80;;;5.20;99.90;;;;;;5041873;28;20052;-71
2022/01/24 04:10:47;;;;;;;16.17;12.98;;;5.20;99.90;;;;;;5036873;28;20126;-71
2022/01/24 04:13:26;;;;;;;16.60;13.38;;;5.20;99.90;;;;;;5040166;28;20144;-71
2022/01/24 04:18:37;;;;;;;17.38;13.07;;;5.20;99.90;;;;;;5049874;28;20508;-71
2022/01/24 04:23:55;;;;;;;17.55;13.65;;;5.20;99.90;;;;;;5064544;28;20115;-71
2022/01/24 04:26:21;;;;;;;16.95;13.25;;;5.20;99.90;;;;;;5036695;28;20033;-71
2022/01/24 04:28:46;;;;;;;17.35;13.32;;;5.20;99.90;;;;;;5037997;28;20044;-71
2022/01/24 04:31:12;;;;;;;17.98;14.02;;;5.20;99.90;;;;;;5050909;28;20044;-71
2022/01/24 04:33:37;;;;;;;19.65;14.57;;;5.20;99.90;;;;;;5055054;28;20036;-71
2022/01/24 04:36:03;;;;;;;16.75;13.57;;;5.20;99.90;;;;;;5051267;28;20044;-71
2022/01/24 04:38:29;;;;;;;17.55;13.95;;;5.20;99.90;;;;;;5047348;28;20497;-71
2022/01/24 04:40:57;;;;;;;15.45;13.20;;;5.20;99.90;;;;;;5020136;28;20064;-71
2022/01/24 04:43:33;;;;;;;18.15;13.60;;;5.20;99.90;;;;;;5051928;28;20091;-71
2022/01/24 04:46:16;;;;;;;14.93;12.18;;;5.20;99.90;;;;;;5027970;28;20085;-71
2022/01/24 04:56:42;;;;;;;18.42;14.05;;;5.20;99.90;;;;;;5043655;28;20052;-71
2022/01/24 04:59:09;;;;;;;20.55;14.75;;;5.20;99.90;;;;;;5048987;28;20565;-71
2022/01/24 05:01:34;;;;;;;17.92;14.90;;;5.20;99.90;;;;;;5041747;28;20340;-71
2022/01/24 05:04:00;;;;;;;18.50;14.90;;;5.20;99.90;;;;;;5064101;28;20048;-71
2022/01/24 05:06:26;;;;;;;17.60;15.13;;;5.20;99.90;;;;;;5032566;28;20049;-71
2022/01/24 05:08:51;;;;;;;17.63;14.65;;;5.20;99.90;;;;;;5044962;28;20076;-71
2022/01/24 05:11:32;;;;;;;17.10;14.00;;;5.20;99.90;;;;;;5041875;28;20045;-71
2022/01/24 05:24:38;;;;;;;16.65;13.38;;;5.20;99.90;;;;;;5042407;28;20698;-71
2022/01/24 05:27:04;;;;;;;17.65;14.40;;;5.20;99.90;;;;;;5053944;28;20078;-71
2022/01/24 05:29:30;;;;;;;18.95;14.88;;;5.20;99.90;;;;;;5047573;28;20488;-71
2022/01/24 05:31:56;;;;;;;17.40;14.23;;;5.20;99.90;;;;;;5027827;28;20044;-71
2022/01/24 05:34:23;;;;;;;16.88;13.95;;;5.20;99.90;;;;;;5035953;28;20043;-71
2022/01/24 05:36:49;;;;;;;16.30;12.65;;;5.20;99.90;;;;;;5030163;28;20518;-71
2022/01/24 05:39:14;;;;;;;13.93;12.38;;;5.20;99.90;;;;;;5042990;28;20123;-71
2022/01/24 05:41:40;;;;;;;14.25;11.80;;;5.20;99.90;;;;;;5048998;28;20064;-71
2022/01/24 05:44:07;;;;;;;15.77;13.27;;;5.20;99.90;;;;;;5043492;28;20520;-71
2022/01/24 05:46:33;;;;;;;16.52;13.40;;;5.20;99.90;;;;;;5053076;28;20098;-71
2022/01/24 05:48:58;;;;;;;16.27;13.63;;;5.20;99.90;;;;;;5051665;28;20040;-71
2022/01/24 05:51:24;;;;;;;18.08;14.65;;;5.20;99.90;;;;;;5054363;28;20041;-71
2022/01/24 05:53:50;;;;;;;19.05;14.57;;;5.20;99.90;;;;;;5038167;28;20040;-71
2022/01/24 05:56:16;;;;;;;18.38;15.15;;;5.20;99.90;;;;;;5043982;28;20466;-71
2022/01/24 05:58:42;;;;;;;18.13;13.93;;;5.10;99.90;;;;;;5044713;28;20051;-71
2022/01/24 06:01:07;;;;;;;18.02;14.38;;;5.20;99.90;;;;;;5035504;28;20032;-71
2022/01/24 06:03:33;;;;;;;18.42;14.57;;;5.10;99.90;;;;;;5041504;28;20040;-71
2022/01/24 06:05:59;;;;;;;18.90;14.85;;;5.20;99.90;;;;;;5054012;28;20055;-71
2022/01/24 06:08:24;;;;;;;18.27;15.35;;;5.20;99.90;;;;;;5033791;28;20080;-71
2022/01/24 06:10:50;;;;;;;18.15;14.02;;;5.20;99.90;;;;;;5048857;28;20045;-71
2022/01/24 06:13:16;;;;;;;16.80;14.05;;;5.10;99.90;;;;;;5065205;28;20029;-71
2022/01/24 06:15:43;;;;;;;27.73;18.60;;;5.10;99.90;;;;;;5048722;28;20470;-71
2022/01/24 06:18:09;;;;;;;32.42;20.80;;;5.20;99.90;;;;;;5041421;28;20115;-72
2022/01/24 06:20:34;;;;;;;45.53;26.58;;;5.10;99.90;;;;;;5040100;28;20092;-71
2022/01/24 06:23:00;;;;;;;31.45;20.92;;;5.10;99.90;;;;;;5037562;28;20040;-71
2022/01/24 06:25:28;;;;;;;27.45;19.50;;;5.10;99.90;;;;;;5036255;28;20048;-71
2022/01/24 06:27:53;;;;;;;26.55;18.95;;;5.10;99.90;;;;;;5048894;28;20044;-71
2022/01/24 06:30:19;;;;;;;21.13;16.10;;;5.10;99.90;;;;;;5030938;28;20044;-72
2022/01/24 06:32:45;;;;;;;23.27;16.73;;;5.10;99.90;;;;;;5043173;28;20041;-72
2022/01/24 06:35:12;;;;;;;24.52;18.25;;;5.10;99.90;;;;;;5034786;28;20123;-72
2022/01/24 06:37:38;;;;;;;22.58;16.83;;;5.10;99.90;;;;;;5046267;28;20082;-71
2022/01/24 06:40:09;;;;;;;21.85;16.40;;;5.10;99.90;;;;;;5035638;28;20053;-72
2022/01/24 06:42:36;;;;;;;16.58;14.27;;;5.10;99.90;;;;;;5045382;28;20070;-72
2022/01/24 06:45:02;;;;;;;17.77;13.63;;;5.10;99.90;;;;;;5049786;28;20039;-72
2022/01/24 06:47:27;;;;;;;17.35;13.43;;;5.00;99.90;;;;;;5045026;28;20036;-71
2022/01/24 06:49:53;;;;;;;15.98;12.57;;;5.10;99.90;;;;;;5053921;28;20694;-71
2022/01/24 06:52:20;;;;;;;16.58;12.68;;;5.00;99.90;;;;;;5052323;28;20033;-71
2022/01/24 06:54:46;;;;;;;15.32;13.20;;;5.00;99.90;;;;;;5052198;28;20129;-72
2022/01/24 06:57:13;;;;;;;134.35;20.35;;;5.00;99.90;;;;;;5043642;28;20066;-71
2022/01/24 06:59:39;;;;;;;18.77;14.00;;;5.00;99.90;;;;;;5035172;28;20065;-71
2022/01/24 07:02:05;;;;;;;15.30;12.82;;;5.00;99.90;;;;;;5050470;28;20036;-71
2022/01/24 07:04:31;;;;;;;61.35;16.45;;;5.00;99.90;;;;;;5052400;28;20071;-72
2022/01/24 07:06:56;;;;;;;53.15;15.48;;;5.00;99.90;;;;;;5038580;28;20053;-72
2022/01/24 07:09:22;;;;;;;20.05;14.10;;;5.00;99.90;;;;;;5035049;28;20398;-71
2022/01/24 07:11:49;;;;;;;18.20;13.82;;;5.00;99.90;;;;;;5047315;28;20082;-72
2022/01/24 07:14:15;;;;;;;21.75;13.07;;;5.00;99.90;;;;;;5052828;28;20449;-72
2022/01/24 07:17:10;;;;;;;15.23;13.32;;;5.00;99.90;;;;;;5046502;28;20072;-72
2022/01/24 07:19:29;;;;;;;17.10;13.75;;;5.00;99.90;;;;;;5047056;28;20048;-71
2022/01/24 07:21:56;;;;;;;16.75;13.57;;;5.00;99.90;;;;;;5029949;28;20382;-72
2022/01/24 07:24:22;;;;;;;15.38;12.43;;;5.00;99.90;;;;;;5047254;28;20486;-72
2022/01/24 07:26:48;;;;;;;17.77;14.13;;;5.00;99.90;;;;;;5045719;28;20095;-72
2022/01/24 07:29:14;;;;;;;19.33;14.40;;;5.00;99.90;;;;;;5051686;28;20098;-72
2022/01/24 07:31:39;;;;;;;17.48;14.20;;;5.00;99.90;;;;;;5037109;28;20553;-71
2022/01/24 07:34:05;;;;;;;17.92;14.15;;;5.00;99.90;;;;;;5061548;28;20046;-71
2022/01/24 07:36:31;;;;;;;17.63;14.10;;;5.00;99.90;;;;;;5036711;28;20094;-72
2022/01/24 07:38:56;;;;;;;22.08;14.82;;;5.00;99.90;;;;;;5045722;28;20402;-72
2022/01/24 07:41:28;;;;;;;24.92;14.73;;;5.00;99.90;;;;;;5044725;28;20127;-71
2022/01/24 07:43:55;;;;;;;23.63;14.55;;;5.10;99.90;;;;;;5046465;28;20040;-71
2022/01/24 07:46:20;;;;;;;21.10;15.30;;;5.00;99.90;;;;;;5049805;28;20049;-71
2022/01/24 07:48:46;;;;;;;19.55;15.25;;;5.00;99.90;;;;;;5044242;28;20094;-72
2022/01/24 07:51:12;;;;;;;21.17;15.90;;;5.00;99.90;;;;;;5040379;28;20044;-71
2022/01/24 07:53:37;;;;;;;18.63;14.80;;;5.10;99.90;;;;;;5040221;28;20032;-71
2022/01/24 07:56:04;;;;;;;18.15;14.63;;;5.00;99.90;;;;;;5057332;28;20063;-71
2022/01/24 07:58:30;;;;;;;20.95;15.70;;;5.00;99.90;;;;;;5046535;28;20079;-71
2022/01/24 08:00:55;;;;;;;19.30;14.20;;;5.00;99.90;;;;;;5049256;28;20036;-72
2022/01/24 08:03:21;;;;;;;21.80;16.08;;;5.00;99.90;;;;;;5046940;28;20076;-72
2022/01/24 08:05:46;;;;;;;21.58;16.45;;;5.00;99.90;;;;;;5048159;28;20049;-71
2022/01/24 08:08:12;;;;;;;22.95;16.70;;;5.10;99.90;;;;;;5047324;28;20037;-72
2022/01/24 08:10:38;;;;;;;22.88;16.90;;;5.00;99.90;;;;;;5042526;28;20049;-72
2022/01/24 08:13:04;;;;;;;23.33;16.67;;;5.00;99.90;;;;;;5069076;28;20127;-71
2022/01/24 08:15:29;;;;;;;24.38;16.33;;;5.10;99.90;;;;;;5045336;28;20155;-71
2022/01/24 08:17:55;;;;;;;21.58;17.60;;;5.10;99.90;;;;;;5047800;28;20033;-72
2022/01/24 08:20:21;;;;;;;25.80;17.10;;;5.20;99.90;;;;;;5045679;28;20048;-71
2022/01/24 08:22:47;;;;;;;23.73;17.35;;;5.10;99.90;;;;;;5044707;28;20127;-71
2022/01/24 08:25:13;;;;;;;24.13;17.25;;;5.10;99.90;;;;;;5047053;28;20152;-72
2022/01/24 08:27:40;;;;;;;23.20;17.00;;;5.10;99.90;;;;;;5031693;28;20036;-72
2022/01/24 08:30:09;;;;;;;22.77;17.00;;;5.10;99.90;;;;;;5033586;28;20036;-72
2022/01/24 08:32:35;;;;;;;24.42;16.88;;;5.10;99.90;;;;;;5021625;28;20035;-72
2022/01/24 08:35:00;;;;;;;24.75;18.58;;;5.20;99.90;;;;;;5059495;28;20398;-72
2022/01/24 08:37:26;;;;;;;23.77;18.70;;;5.20;99.90;;;;;;5048917;28;20040;-72
2022/01/24 08:39:52;;;;;;;26.25;18.83;;;5.20;99.90;;;;;;5043530;28;20044;-72
2022/01/24 08:42:27;;;;;;;28.35;18.50;;;5.20;99.90;;;;;;5047687;28;20094;-72
2022/01/24 08:47:23;;;;;;;26.90;18.73;;;5.20;99.90;;;;;;5047163;28;20359;-72
2022/01/24 08:49:50;;;;;;;26.60;18.88;;;5.20;99.90;;;;;;5045358;28;20040;-72
2022/01/24 08:52:15;;;;;;;26.58;19.30;;;5.20;99.90;;;;;;5051870;28;20047;-72
2022/01/24 08:54:41;;;;;;;26.10;19.65;;;5.30;99.90;;;;;;5041085;28;20040;-72
2022/01/24 08:57:07;;;;;;;24.23;18.45;;;5.30;99.90;;;;;;5053256;28;20048;-71
2022/01/24 08:59:33;;;;;;;26.83;19.63;;;5.30;99.90;;;;;;5045405;28;20037;-71
2022/01/24 09:02:00;;;;;;;29.75;19.45;;;5.30;99.90;;;;;;5041125;28;20036;-71
2022/01/24 09:04:26;;;;;;;29.35;20.55;;;5.30;99.90;;;;;;5042331;28;20525;-72
2022/01/24 09:06:52;;;;;;;28.90;20.90;;;5.30;99.90;;;;;;5068337;28;20053;-72
2022/01/24 09:09:19;;;;;;;32.47;23.05;;;5.30;99.90;;;;;;5047743;28;20149;-72
2022/01/24 09:11:45;;;;;;;31.10;22.35;;;5.40;99.90;;;;;;5029562;28;20562;-72
2022/01/24 09:14:10;;;;;;;32.70;22.58;;;5.40;99.90;;;;;;5024749;28;20128;-72
2022/01/24 09:16:36;;;;;;;38.65;25.35;;;5.40;99.90;;;;;;5037996;28;20043;-72
2022/01/24 09:19:06;;;;;;;37.65;24.38;;;5.40;99.90;;;;;;5041432;28;20052;-72
2022/01/24 09:21:34;;;;;;;34.97;23.88;;;5.40;99.90;;;;;;5041500;28;20045;-71
2022/01/24 09:24:01;;;;;;;34.17;23.52;;;5.40;99.90;;;;;;5045571;28;20033;-72
2022/01/24 09:26:26;;;;;;;36.17;23.05;;;5.50;99.90;;;;;;5048235;28;20094;-72
2022/01/24 09:28:53;;;;;;;37.35;23.33;;;5.50;99.90;;;;;;5041928;28;20414;-72
2022/01/24 09:31:18;;;;;;;35.65;24.23;;;5.50;99.90;;;;;;5041806;28;20045;-72
2022/01/24 09:33:44;;;;;;;35.78;23.92;;;5.50;99.90;;;;;;5045893;28;20056;-72
2022/01/24 09:36:10;;;;;;;39.15;25.25;;;5.50;99.90;;;;;;5044984;28;20032;-72
2022/01/24 09:38:36;;;;;;;38.40;24.85;;;5.50;99.90;;;;;;5049685;28;20134;-72
2022/01/24 09:41:05;;;;;;;42.55;27.55;;;5.50;99.90;;;;;;5021535;28;20037;-72
2022/01/24 09:43:31;;;;;;;47.90;29.60;;;5.60;99.90;;;;;;5034408;28;20494;-72
2022/01/24 09:45:58;;;;;;;52.60;30.60;;;5.60;99.90;;;;;;5041954;28;20110;-72
2022/01/24 09:48:24;;;;;;;55.30;33.53;;;5.60;99.90;;;;;;5045831;28;20048;-72
2022/01/24 09:50:52;;;;;;;57.85;34.05;;;5.60;99.90;;;;;;5045465;28;20127;-72
2022/01/24 09:53:19;;;;;;;64.68;37.70;;;5.60;99.90;;;;;;5038797;28;21717;-72
2022/01/24 09:55:45;;;;;;;64.65;38.67;;;5.60;99.90;;;;;;5034172;28;20071;-72
2022/01/24 09:58:10;;;;;;;66.70;38.00;;;5.70;99.90;;;;;;5027937;28;20674;-72
2022/01/24 10:00:36;;;;;;;68.07;40.90;;;5.70;99.90;;;;;;5042254;28;20048;-72
2022/01/24 10:03:02;;;;;;;64.97;38.10;;;5.70;99.90;;;;;;5039025;28;20064;-72
2022/01/24 10:05:34;;;;;;;67.63;39.38;;;5.70;99.90;;;;;;5046147;28;20072;-72
2022/01/24 10:08:03;;;;;;;68.38;41.70;;;5.70;99.90;;;;;;5028776;28;20512;-72
2022/01/24 10:10:38;;;;;;;64.38;37.35;;;5.70;99.90;;;;;;5047951;28;20040;-71
2022/01/24 10:16:24;;;;;;;60.50;36.38;;;5.70;99.90;;;;;;5043560;28;20033;-72
2022/01/24 10:19:04;;;;;;;58.65;36.38;;;5.80;99.90;;;;;;5043484;28;20049;-71
2022/01/24 10:21:35;;;;;;;65.95;39.53;;;5.80;99.90;;;;;;5050570;28;20033;-71
2022/01/24 10:24:00;;;;;;;66.03;38.83;;;5.90;99.90;;;;;;5049223;28;20052;-71
2022/01/24 10:26:26;;;;;;;63.72;40.17;;;5.90;99.90;;;;;;5046632;28;20037;-72
2022/01/24 10:28:52;;;;;;;66.18;40.05;;;5.90;99.90;;;;;;5046026;28;20048;-72
2022/01/24 10:31:23;;;;;;;58.80;37.45;;;5.90;99.90;;;;;;5067576;28;20033;-71
2022/01/24 10:33:56;;;;;;;64.00;36.92;;;5.90;99.90;;;;;;5038903;28;20052;-71
2022/01/24 10:36:40;;;;;;;62.75;38.47;;;5.90;99.90;;;;;;5046610;28;20044;-71
2022/01/24 10:39:08;;;;;;;58.78;35.63;;;6.00;99.90;;;;;;5046742;28;20041;-72
2022/01/24 10:41:54;;;;;;;59.25;36.30;;;6.00;99.90;;;;;;5045750;28;20110;-71
2022/01/24 10:44:28;;;;;;;57.75;35.95;;;6.00;99.90;;;;;;5048079;28;20063;-72
2022/01/24 10:47:12;;;;;;;60.20;36.63;;;6.10;99.90;;;;;;5041150;28;20460;-72
2022/01/24 10:49:39;;;;;;;60.03;37.70;;;6.10;99.90;;;;;;5029505;28;20041;-72
2022/01/24 10:52:19;;;;;;;57.50;38.30;;;6.10;99.90;;;;;;5037781;28;20043;-72
2022/01/24 10:54:50;;;;;;;66.68;39.38;;;6.10;99.90;;;;;;5043483;28;20107;-72
2022/01/24 10:57:21;;;;;;;64.65;39.67;;;6.10;99.90;;;;;;5044623;28;20028;-72
2022/01/24 10:59:47;;;;;;;63.33;38.92;;;6.10;99.90;;;;;;5045919;28;20074;-71
2022/01/24 11:02:16;;;;;;;59.17;36.20;;;6.10;99.90;;;;;;5048885;28;20036;-71
2022/01/24 11:04:42;;;;;;;62.95;40.45;;;6.20;99.90;;;;;;5068292;28;20044;-71
2022/01/24 11:07:07;;;;;;;60.75;37.90;;;6.20;99.90;;;;;;5031093;28;20045;-71
2022/01/24 11:09:35;;;;;;;59.83;36.88;;;6.20;99.90;;;;;;5030788;28;20041;-71
2022/01/24 11:12:08;;;;;;;62.95;39.70;;;6.20;99.90;;;;;;5029239;28;20467;-71
2022/01/24 11:14:36;;;;;;;59.70;37.15;;;6.20;99.90;;;;;;5022540;28;20343;-71
2022/01/24 11:17:04;;;;;;;61.22;39.47;;;6.20;99.90;;;;;;5016571;28;20053;-71
2022/01/24 11:22:04;;;;;;;59.88;38.00;;;6.20;99.90;;;;;;5022464;28;20037;-71
2022/01/24 11:24:39;;;;;;;57.85;37.70;;;6.20;99.90;;;;;;5009982;28;20052;-72
2022/01/24 11:27:06;;;;;;;55.15;37.00;;;6.30;99.90;;;;;;5021818;28;20418;-72
2022/01/24 11:29:32;;;;;;;55.17;37.90;;;6.20;99.90;;;;;;5013826;28;20558;-72
2022/01/24 11:32:15;;;;;;;57.67;38.42;;;6.20;99.90;;;;;;5022107;28;20049;-72
2022/01/24 11:34:42;;;;;;;48.75;34.75;;;6.20;99.90;;;;;;5010116;28;20051;-72
2022/01/24 11:37:09;;;;;;;50.20;35.33;;;6.30;99.90;;;;;;5020996;28;20043;-72
2022/01/24 11:39:36;;;;;;;47.60;33.67;;;6.30;99.90;;;;;;5009737;28;20037;-71
2022/01/24 11:42:03;;;;;;;40.25;30.77;;;6.20;99.90;;;;;;5017572;28;20136;-71
2022/01/24 11:44:46;;;;;;;45.40;32.70;;;6.30;99.90;;;;;;5024285;28;20079;-71
2022/01/24 11:47:21;;;;;;;44.67;31.33;;;6.30;99.90;;;;;;5020057;28;20741;-71
2022/01/24 11:49:46;;;;;;;46.17;31.83;;;6.30;99.90;;;;;;5016400;28;20483;-71
2022/01/24 11:52:15;;;;;;;43.42;30.85;;;6.20;99.90;;;;;;5016812;28;20051;-71
2022/01/24 11:55:00;;;;;;;43.22;32.83;;;6.30;99.90;;;;;;5014302;28;20052;-71
2022/01/24 11:57:38;;;;;;;47.90;36.10;;;6.30;99.90;;;;;;5011855;28;20045;-71
2022/01/24 12:00:04;;;;;;;45.67;34.25;;;6.30;99.90;;;;;;5015881;28;20083;-71
2022/01/24 12:02:44;;;;;;;44.60;32.25;;;6.20;99.90;;;;;;5026991;28;20114;-71
2022/01/24 12:05:22;;;;;;;44.03;32.88;;;6.20;99.90;;;;;;5029410;28;20041;-71
2022/01/24 12:07:51;;;;;;;46.13;32.08;;;6.30;99.90;;;;;;5041416;28;20037;-71
2022/01/24 12:10:44;;;;;;;45.55;33.53;;;6.30;99.90;;;;;;5041727;28;20070;-72
2022/01/24 12:13:18;;;;;;;45.50;32.97;;;6.30;99.90;;;;;;5059941;28;20055;-71
2022/01/24 12:15:51;;;;;;;45.28;33.70;;;6.30;99.90;;;;;;5049839;28;20444;-71
2022/01/24 12:18:21;;;;;;;44.85;33.60;;;6.20;99.90;;;;;;5048818;28;20578;-71
2022/01/24 12:20:48;;;;;;;41.30;31.58;;;6.20;99.90;;;;;;5056004;28;20047;-71
2022/01/24 12:23:20;;;;;;;42.20;32.15;;;6.20;99.90;;;;;;5044386;28;20117;-71
2022/01/24 12:26:08;;;;;;;39.30;30.15;;;6.20;99.90;;;;;;5039320;28;20041;-72
2022/01/24 12:28:43;;;;;;;36.50;28.05;;;6.20;99.90;;;;;;5045742;28;20052;-72
2022/01/24 12:31:16;;;;;;;36.88;27.85;;;6.30;99.90;;;;;;5036825;28;20048;-72
2022/01/24 12:33:50;;;;;;;35.90;26.60;;;6.40;99.90;;;;;;5059528;28;20037;-72
2022/01/24 12:36:16;;;;;;;38.20;28.17;;;6.40;99.90;;;;;;5041527;28;20470;-72
2022/01/24 12:38:56;;;;;;;39.20;29.02;;;6.30;99.90;;;;;;5048275;28;20075;-72
2022/01/24 12:41:33;;;;;;;37.20;29.15;;;6.30;99.90;;;;;;5047040;28;20051;-72
2022/01/24 12:46:27;;;;;;;35.33;25.88;;;6.40;99.90;;;;;;5046134;28;20133;-72
2022/01/24 12:48:54;;;;;;;33.25;25.13;;;6.40;99.90;;;;;;5041406;28;20127;-72
2022/01/24 12:51:23;;;;;;;33.83;26.85;;;6.40;99.90;;;;;;5043925;28;20053;-72
2022/01/24 12:53:49;;;;;;;36.10;27.15;;;6.40;99.90;;;;;;5038474;28;20132;-72
2022/01/24 12:56:18;;;;;;;32.28;25.30;;;6.40;99.90;;;;;;5065516;28;20037;-72
2022/01/24 12:58:47;;;;;;;36.00;26.02;;;6.40;99.90;;;;;;5024713;28;20052;-72
2022/01/24 13:01:29;;;;;;;37.33;29.90;;;6.40;99.90;;;;;;5065900;28;20066;-72
2022/01/24 13:04:02;;;;;;;32.47;25.33;;;6.40;99.90;;;;;;5050785;28;20052;-72
2022/01/24 13:06:31;;;;;;;30.88;23.85;;;6.40;99.90;;;;;;5037055;28;20045;-72
2022/01/24 13:09:14;;;;;;;30.35;22.65;;;6.40;99.90;;;;;;5046721;28;20134;-72
2022/01/24 13:11:58;;;;;;;30.40;23.23;;;6.30;99.90;;;;;;5043438;28;20037;-72
2022/01/24 13:14:41;;;;;;;31.10;22.88;;;6.30;99.90;;;;;;5038349;28;20024;-71
2022/01/24 13:22:50;;;;;;;35.90;26.08;;;6.20;99.90;;;;;;5015699;28;20037;-72
2022/01/24 13:25:23;;;;;;;33.80;25.38;;;6.20;99.90;;;;;;5019184;28;20065;-72
2022/01/24 13:28:09;;;;;;;35.85;26.35;;;6.20;99.90;;;;;;5015371;28;20620;-72
2022/01/24 13:30:40;;;;;;;31.65;25.27;;;6.20;99.90;;;;;;5001439;28;20068;-72
2022/01/24 13:33:12;;;;;;;31.85;24.42;;;6.20;99.90;;;;;;5016343;28;20365;-73
2022/01/24 13:35:44;;;;;;;35.15;26.85;;;6.20;99.90;;;;;;4997503;28;20053;-72
2022/01/24 13:38:12;;;;;;;;;;;6.20;99.90;;;;;;5032986;28;20628;-72
2022/01/24 13:40:41;;;;;;;34.47;27.00;;;6.20;99.90;;;;;;5009408;28;19917;-72
2022/01/24 13:43:09;;;;;;;37.53;28.73;;;6.20;99.90;;;;;;5020438;28;20033;-72
2022/01/24 13:45:37;;;;;;;38.92;31.45;;;6.20;99.90;;;;;;5007179;28;20050;-72
2022/01/24 13:48:05;;;;;;;39.35;29.27;;;6.20;99.90;;;;;;5022131;28;20094;-72
2022/01/24 13:50:32;;;;;;;36.92;26.80;;;6.20;99.90;;;;;;5007613;28;20103;-72
2022/01/24 13:52:58;;;;;;;31.10;24.45;;;6.20;99.90;;;;;;5023499;28;20129;-72
2022/01/24 13:55:24;;;;;;;31.80;25.05;;;6.20;99.90;;;;;;5011844;28;20674;-72
2022/01/24 13:57:53;;;;;;;32.45;26.35;;;6.20;99.90;;;;;;5010909;28;20048;-72
2022/01/24 14:00:25;;;;;;;35.90;27.05;;;6.20;99.90;;;;;;5011332;28;20037;-72
2022/01/24 14:03:04;;;;;;;;;;;6.20;99.90;;;;;;5003013;28;20117;-72
2022/01/24 14:05:30;;;;;;;33.25;24.73;;;6.20;99.90;;;;;;5009664;28;20350;-73
2022/01/24 14:07:55;;;;;;;33.90;26.60;;;6.20;99.90;;;;;;5029362;28;20128;-73
2022/01/24 14:10:21;;;;;;;34.65;25.48;;;6.20;99.90;;;;;;5030291;28;20493;-72
2022/01/24 14:12:52;;;;;;;34.65;26.30;;;6.20;99.90;;;;;;5012277;28;20044;-72
2022/01/24 14:15:26;;;;;;;36.17;27.27;;;6.20;99.90;;;;;;5029992;28;20049;-72
2022/01/24 14:18:25;;;;;;;34.55;26.90;;;6.10;99.90;;;;;;5018903;28;20502;-72
2022/01/24 14:20:53;;;;;;;33.90;25.80;;;6.10;99.90;;;;;;5027505;28;20042;-73
2022/01/24 14:23:35;;;;;;;37.55;27.23;;;6.10;99.90;;;;;;5003953;28;20033;-73
2022/01/24 14:26:14;;;;;;;34.97;26.25;;;6.00;99.90;;;;;;5031907;28;20628;-73
2022/01/24 14:28:40;;;;;;;31.13;24.15;;;6.10;99.90;;;;;;5004163;28;20033;-72
2022/01/24 14:31:13;;;;;;;35.10;26.08;;;6.20;99.90;;;;;;5009836;28;20128;-73
2022/01/24 14:33:40;;;;;;;37.85;27.55;;;6.10;99.90;;;;;;5012471;28;20112;-73
2022/01/24 14:36:11;;;;;;;37.63;27.42;;;6.10;99.90;;;;;;5010611;28;20065;-72
2022/01/24 14:38:43;;;;;;;35.38;26.40;;;6.00;99.90;;;;;;5003442;28;20064;-72